sensor_id;sensor_type;location;lat;lon;timestamp;temperature;humidity
53053;DHT22;38934;52.690;6.184;2023-11-21T00:00:15;8.40;99.90
53053;DHT22;38934;52.690;6.184;2023-11-21T00:02:41;8.50;99.90
53053;DHT22;38934;52.690;6.184;2023-11-21T00:05:08;8.60;99.90
53053;DHT22;38934;52.690;6.184;2023-11-21T00:07:35;8.60;99.90
53053;DHT22;38934;52.690;6.184;2023-11-21T00:10:01;8.40;99.90
53053;DHT22;38934;52.690;6.184;2023-11-21T00:12:28;8.60;99.90
53053;DHT22;38934;52.690;6.184;2023-11-21T00:14:55;8.40;99.90
53053;DHT22;38934;52.690;6.184;2023-11-21T00:17:21;8.60;99.90
53053;DHT22;38934;52.690;6.184;2023-11-21T00:19:47;8.60;99.90
53053;DHT22;38934;52.690;6.184;2023-11-21T00:22:12;8.50;99.90
53053;DHT22;38934;52.690;6.184;2023-11-21T00:24:38;8.60;99.90
53053;DHT22;38934;52.690;6.184;2023-11-21T00:27:03;8.60;99.90
53053;DHT22;38934;52.690;6.184;2023-11-21T00:29:29;8.60;99.90
53053;DHT22;38934;52.690;6.184;2023-11-21T00:31:55;8.50;99.90
53053;DHT22;38934;52.690;6.184;2023-11-21T00:34:20;8.50;99.90
53053;DHT22;38934;52.690;6.184;2023-11-21T00:36:46;8.50;99.90
53053;DHT22;38934;52.690;6.184;2023-11-21T00:39:12;8.60;99.90
53053;DHT22;38934;52.690;6.184;2023-11-21T00:41:37;8.50;99.90
53053;DHT22;38934;52.690;6.184;2023-11-21T00:44:03;8.50;99.90
53053;DHT22;38934;52.690;6.184;2023-11-21T00:46:29;8.60;99.90
53053;DHT22;38934;52.690;6.184;2023-11-21T00:48:55;8.50;99.90
53053;DHT22;38934;52.690;6.184;2023-11-21T00:51:21;8.60;99.90
53053;DHT22;38934;52.690;6.184;2023-11-21T00:53:47;8.70;99.90
53053;DHT22;38934;52.690;6.184;2023-11-21T00:56:14;8.50;99.90
53053;DHT22;38934;52.690;6.184;2023-11-21T00:58:40;8.70;99.90
53053;DHT22;38934;52.690;6.184;2023-11-21T01:01:11;8.70;99.90
53053;DHT22;38934;52.690;6.184;2023-11-21T01:03:37;8.60;99.90
53053;DHT22;38934;52.690;6.184;2023-11-21T01:06:03;8.60;99.90
53053;DHT22;38934;52.690;6.184;2023-11-21T01:08:32;8.70;99.90
53053;DHT22;38934;52.690;6.184;2023-11-21T01:10:58;8.60;99.90
53053;DHT22;38934;52.690;6.184;2023-11-21T01:13:24;8.70;99.90
53053;DHT22;38934;52.690;6.184;2023-11-21T01:15:55;8.60;99.90
53053;DHT22;38934;52.690;6.184;2023-11-21T01:18:21;8.70;99.90
53053;DHT22;38934;52.690;6.184;2023-11-21T01:20:46;8.70;99.90
53053;DHT22;38934;52.690;6.184;2023-11-21T01:23:13;8.60;99.90
53053;DHT22;38934;52.690;6.184;2023-11-21T01:25:38;8.60;99.90
53053;DHT22;38934;52.690;6.184;2023-11-21T01:28:04;8.70;99.90
53053;DHT22;38934;52.690;6.184;2023-11-21T01:30:30;8.70;99.90
53053;DHT22;38934;52.690;6.184;2023-11-21T01:32:56;8.80;99.90
53053;DHT22;38934;52.690;6.184;2023-11-21T01:35:22;8.70;99.90
53053;DHT22;38934;52.690;6.184;2023-11-21T01:37:47;8.60;99.90
53053;DHT22;38934;52.690;6.184;2023-11-21T01:40:13;8.80;99.90
53053;DHT22;38934;52.690;6.184;2023-11-21T01:42:40;8.60;99.90
53053;DHT22;38934;52.690;6.184;2023-11-21T01:45:06;8.70;99.90
53053;DHT22;38934;52.690;6.184;2023-11-21T01:47:33;8.60;99.90
53053;DHT22;38934;52.690;6.184;2023-11-21T01:49:59;8.60;99.90
53053;DHT22;38934;52.690;6.184;2023-11-21T01:52:26;8.70;99.90
53053;DHT22;38934;52.690;6.184;2023-11-21T01:54:52;8.60;99.90
53053;DHT22;38934;52.690;6.184;2023-11-21T01:57:19;8.70;99.90
53053;DHT22;38934;52.690;6.184;2023-11-21T01:59:47;8.60;99.90
53053;DHT22;38934;52.690;6.184;2023-11-21T02:02:14;8.60;99.90
53053;DHT22;38934;52.690;6.184;2023-11-21T02:04:39;8.80;99.90
53053;DHT22;38934;52.690;6.184;2023-11-21T02:07:05;8.60;99.90
53053;DHT22;38934;52.690;6.184;2023-11-21T02:09:31;8.70;99.90
53053;DHT22;38934;52.690;6.184;2023-11-21T02:12:00;8.80;99.90
53053;DHT22;38934;52.690;6.184;2023-11-21T02:14:27;8.80;99.90
53053;DHT22;38934;52.690;6.184;2023-11-21T02:16:54;8.80;99.90
53053;DHT22;38934;52.690;6.184;2023-11-21T02:19:21;8.70;99.90
53053;DHT22;38934;52.690;6.184;2023-11-21T02:21:56;8.90;99.90
53053;DHT22;38934;52.690;6.184;2023-11-21T02:24:26;8.80;99.90
53053;DHT22;38934;52.690;6.184;2023-11-21T02:26:52;8.70;99.90
53053;DHT22;38934;52.690;6.184;2023-11-21T02:29:21;8.90;99.90
53053;DHT22;38934;52.690;6.184;2023-11-21T02:31:54;8.90;99.90
53053;DHT22;38934;52.690;6.184;2023-11-21T02:34:21;8.90;99.90
53053;DHT22;38934;52.690;6.184;2023-11-21T02:36:47;8.90;99.90
53053;DHT22;38934;52.690;6.184;2023-11-21T02:39:15;8.80;99.90
53053;DHT22;38934;52.690;6.184;2023-11-21T02:41:40;8.80;99.90
53053;DHT22;38934;52.690;6.184;2023-11-21T02:44:06;8.70;99.90
53053;DHT22;38934;52.690;6.184;2023-11-21T02:46:33;8.80;99.90
53053;DHT22;38934;52.690;6.184;2023-11-21T02:49:08;8.80;99.90
53053;DHT22;38934;52.690;6.184;2023-11-21T02:51:35;9.00;99.90
53053;DHT22;38934;52.690;6.184;2023-11-21T02:54:01;8.80;99.90
53053;DHT22;38934;52.690;6.184;2023-11-21T02:56:29;8.90;99.90
53053;DHT22;38934;52.690;6.184;2023-11-21T02:58:59;8.90;99.90
53053;DHT22;38934;52.690;6.184;2023-11-21T03:01:25;8.80;99.90
53053;DHT22;38934;52.690;6.184;2023-11-21T03:03:51;8.80;99.90
53053;DHT22;38934;52.690;6.184;2023-11-21T03:06:20;8.80;99.90
53053;DHT22;38934;52.690;6.184;2023-11-21T03:08:46;8.70;99.90
53053;DHT22;38934;52.690;6.184;2023-11-21T03:11:12;8.80;99.90
53053;DHT22;38934;52.690;6.184;2023-11-21T03:13:41;8.80;99.90
53053;DHT22;38934;52.690;6.184;2023-11-21T03:16:10;8.90;99.90
53053;DHT22;38934;52.690;6.184;2023-11-21T03:18:40;8.90;99.90
53053;DHT22;38934;52.690;6.184;2023-11-21T03:21:06;8.80;99.90
53053;DHT22;38934;52.690;6.184;2023-11-21T03:23:36;8.80;99.90
53053;DHT22;38934;52.690;6.184;2023-11-21T03:26:02;8.80;99.90
53053;DHT22;38934;52.690;6.184;2023-11-21T03:28:28;8.80;99.90
53053;DHT22;38934;52.690;6.184;2023-11-21T03:30:53;8.80;99.90
53053;DHT22;38934;52.690;6.184;2023-11-21T03:33:19;8.80;99.90
53053;DHT22;38934;52.690;6.184;2023-11-21T03:35:45;8.80;99.90
53053;DHT22;38934;52.690;6.184;2023-11-21T03:38:11;8.80;99.90
53053;DHT22;38934;52.690;6.184;2023-11-21T03:40:37;8.80;99.90
53053;DHT22;38934;52.690;6.184;2023-11-21T03:43:05;8.80;99.90
53053;DHT22;38934;52.690;6.184;2023-11-21T03:45:31;8.70;99.90
53053;DHT22;38934;52.690;6.184;2023-11-21T03:47:57;8.90;99.90
53053;DHT22;38934;52.690;6.184;2023-11-21T03:50:22;8.90;99.90
53053;DHT22;38934;52.690;6.184;2023-11-21T03:52:48;8.90;99.90
53053;DHT22;38934;52.690;6.184;2023-11-21T03:55:14;8.80;99.90
53053;DHT22;38934;52.690;6.184;2023-11-21T03:57:50;8.80;99.90
53053;DHT22;38934;52.690;6.184;2023-11-21T04:00:17;8.90;99.90
53053;DHT22;38934;52.690;6.184;2023-11-21T04:02:43;8.80;99.90
53053;DHT22;38934;52.690;6.184;2023-11-21T04:05:08;8.80;99.90
53053;DHT22;38934;52.690;6.184;2023-11-21T04:07:35;9.10;99.90
53053;DHT22;38934;52.690;6.184;2023-11-21T04:10:00;8.80;99.90
53053;DHT22;38934;52.690;6.184;2023-11-21T04:12:26;8.90;99.90
53053;DHT22;38934;52.690;6.184;2023-11-21T04:14:52;8.90;99.90
53053;DHT22;38934;52.690;6.184;2023-11-21T04:17:20;9.00;99.90
53053;DHT22;38934;52.690;6.184;2023-11-21T04:19:46;8.80;99.90
53053;DHT22;38934;52.690;6.184;2023-11-21T04:22:12;8.80;99.90
53053;DHT22;38934;52.690;6.184;2023-11-21T04:24:38;8.90;99.90
53053;DHT22;38934;52.690;6.184;2023-11-21T04:27:03;8.80;99.90
53053;DHT22;38934;52.690;6.184;2023-11-21T04:29:29;9.00;99.90
53053;DHT22;38934;52.690;6.184;2023-11-21T04:31:55;9.00;99.90
53053;DHT22;38934;52.690;6.184;2023-11-21T04:34:21;9.00;99.90
53053;DHT22;38934;52.690;6.184;2023-11-21T04:36:46;9.00;99.90
53053;DHT22;38934;52.690;6.184;2023-11-21T04:39:12;8.90;99.90
53053;DHT22;38934;52.690;6.184;2023-11-21T04:41:37;9.00;99.90
53053;DHT22;38934;52.690;6.184;2023-11-21T04:44:05;9.00;99.90
53053;DHT22;38934;52.690;6.184;2023-11-21T04:46:31;8.90;99.90
53053;DHT22;38934;52.690;6.184;2023-11-21T04:48:57;8.90;99.90
53053;DHT22;38934;52.690;6.184;2023-11-21T04:51:23;8.90;99.90
53053;DHT22;38934;52.690;6.184;2023-11-21T04:53:49;8.90;99.90
53053;DHT22;38934;52.690;6.184;2023-11-21T04:56:15;8.90;99.90
53053;DHT22;38934;52.690;6.184;2023-11-21T04:58:41;9.00;99.90
53053;DHT22;38934;52.690;6.184;2023-11-21T05:01:07;9.00;99.90
53053;DHT22;38934;52.690;6.184;2023-11-21T05:03:33;8.90;99.90
53053;DHT22;38934;52.690;6.184;2023-11-21T05:05:59;9.00;99.90
53053;DHT22;38934;52.690;6.184;2023-11-21T05:08:25;9.00;99.90
53053;DHT22;38934;52.690;6.184;2023-11-21T05:10:52;9.00;99.90
53053;DHT22;38934;52.690;6.184;2023-11-21T05:13:17;9.10;99.90
53053;DHT22;38934;52.690;6.184;2023-11-21T05:15:44;9.00;99.90
53053;DHT22;38934;52.690;6.184;2023-11-21T05:18:10;9.10;99.90
53053;DHT22;38934;52.690;6.184;2023-11-21T05:20:36;8.90;99.90
53053;DHT22;38934;52.690;6.184;2023-11-21T05:23:02;9.00;99.90
53053;DHT22;38934;52.690;6.184;2023-11-21T05:25:28;9.00;99.90
53053;DHT22;38934;52.690;6.184;2023-11-21T05:27:53;9.20;99.90
53053;DHT22;38934;52.690;6.184;2023-11-21T05:30:24;9.00;99.90
53053;DHT22;38934;52.690;6.184;2023-11-21T05:32:50;9.10;99.90
53053;DHT22;38934;52.690;6.184;2023-11-21T05:35:15;9.00;99.90
53053;DHT22;38934;52.690;6.184;2023-11-21T05:37:42;9.00;99.90
53053;DHT22;38934;52.690;6.184;2023-11-21T05:40:08;9.10;99.90
53053;DHT22;38934;52.690;6.184;2023-11-21T05:42:35;9.10;99.90
53053;DHT22;38934;52.690;6.184;2023-11-21T05:45:01;9.10;99.90
53053;DHT22;38934;52.690;6.184;2023-11-21T05:47:41;9.10;99.90
53053;DHT22;38934;52.690;6.184;2023-11-21T05:50:08;9.10;99.90
53053;DHT22;38934;52.690;6.184;2023-11-21T05:52:40;9.10;99.90
53053;DHT22;38934;52.690;6.184;2023-11-21T05:55:06;9.00;99.90
53053;DHT22;38934;52.690;6.184;2023-11-21T05:57:36;9.10;99.90
53053;DHT22;38934;52.690;6.184;2023-11-21T06:00:06;9.00;99.90
53053;DHT22;38934;52.690;6.184;2023-11-21T06:02:46;9.10;99.90
53053;DHT22;38934;52.690;6.184;2023-11-21T06:05:12;9.10;99.90
53053;DHT22;38934;52.690;6.184;2023-11-21T06:07:38;9.10;99.90
53053;DHT22;38934;52.690;6.184;2023-11-21T06:10:08;8.90;99.90
53053;DHT22;38934;52.690;6.184;2023-11-21T06:12:36;8.90;99.90
53053;DHT22;38934;52.690;6.184;2023-11-21T06:15:05;9.70;99.90
53053;DHT22;38934;52.690;6.184;2023-11-21T06:17:34;8.90;99.90
53053;DHT22;38934;52.690;6.184;2023-11-21T06:20:08;9.00;99.90
53053;DHT22;38934;52.690;6.184;2023-11-21T06:22:36;8.90;99.90
53053;DHT22;38934;52.690;6.184;2023-11-21T06:25:01;9.00;99.90
53053;DHT22;38934;52.690;6.184;2023-11-21T06:27:28;9.00;99.90
53053;DHT22;38934;52.690;6.184;2023-11-21T06:29:55;9.10;99.90
53053;DHT22;38934;52.690;6.184;2023-11-21T06:32:20;8.90;99.90
53053;DHT22;38934;52.690;6.184;2023-11-21T06:34:48;9.10;99.90
53053;DHT22;38934;52.690;6.184;2023-11-21T06:37:13;9.00;99.90
53053;DHT22;38934;52.690;6.184;2023-11-21T06:39:39;8.90;99.90
53053;DHT22;38934;52.690;6.184;2023-11-21T06:42:05;9.00;99.90
53053;DHT22;38934;52.690;6.184;2023-11-21T06:44:30;9.10;99.90
53053;DHT22;38934;52.690;6.184;2023-11-21T06:46:56;9.10;99.90
53053;DHT22;38934;52.690;6.184;2023-11-21T06:49:22;8.90;99.90
53053;DHT22;38934;52.690;6.184;2023-11-21T06:51:48;9.10;99.90
53053;DHT22;38934;52.690;6.184;2023-11-21T06:54:14;9.00;99.90
53053;DHT22;38934;52.690;6.184;2023-11-21T06:56:39;9.00;99.90
53053;DHT22;38934;52.690;6.184;2023-11-21T06:59:06;9.10;99.90
53053;DHT22;38934;52.690;6.184;2023-11-21T07:01:32;9.00;99.90
53053;DHT22;38934;52.690;6.184;2023-11-21T07:04:04;8.90;99.90
53053;DHT22;38934;52.690;6.184;2023-11-21T07:06:30;9.00;99.90
53053;DHT22;38934;52.690;6.184;2023-11-21T07:08:56;9.10;99.90
53053;DHT22;38934;52.690;6.184;2023-11-21T07:11:22;8.90;99.90
53053;DHT22;38934;52.690;6.184;2023-11-21T07:13:48;8.80;99.90
53053;DHT22;38934;52.690;6.184;2023-11-21T07:16:13;8.80;99.90
53053;DHT22;38934;52.690;6.184;2023-11-21T07:18:40;9.00;99.90
53053;DHT22;38934;52.690;6.184;2023-11-21T07:21:06;9.00;99.90
53053;DHT22;38934;52.690;6.184;2023-11-21T07:23:32;8.90;99.90
53053;DHT22;38934;52.690;6.184;2023-11-21T07:25:58;8.80;99.90
53053;DHT22;38934;52.690;6.184;2023-11-21T07:28:24;8.90;99.90
53053;DHT22;38934;52.690;6.184;2023-11-21T07:30:51;8.90;99.90
53053;DHT22;38934;52.690;6.184;2023-11-21T07:33:17;9.00;99.90
53053;DHT22;38934;52.690;6.184;2023-11-21T07:35:43;8.90;99.90
53053;DHT22;38934;52.690;6.184;2023-11-21T07:38:08;8.80;99.90
53053;DHT22;38934;52.690;6.184;2023-11-21T07:40:34;8.90;99.90
53053;DHT22;38934;52.690;6.184;2023-11-21T07:43:00;8.80;99.90
53053;DHT22;38934;52.690;6.184;2023-11-21T07:45:25;8.80;99.90
53053;DHT22;38934;52.690;6.184;2023-11-21T07:47:53;9.00;99.90
53053;DHT22;38934;52.690;6.184;2023-11-21T07:50:20;8.80;99.90
53053;DHT22;38934;52.690;6.184;2023-11-21T07:52:46;8.90;99.90
53053;DHT22;38934;52.690;6.184;2023-11-21T07:55:11;9.00;99.90
53053;DHT22;38934;52.690;6.184;2023-11-21T07:57:37;8.90;99.90
53053;DHT22;38934;52.690;6.184;2023-11-21T08:00:05;8.90;99.90
53053;DHT22;38934;52.690;6.184;2023-11-21T08:02:34;9.00;99.90
53053;DHT22;38934;52.690;6.184;2023-11-21T08:05:00;9.00;99.90
53053;DHT22;38934;52.690;6.184;2023-11-21T08:07:26;9.10;99.90
53053;DHT22;38934;52.690;6.184;2023-11-21T08:09:51;9.20;99.90
53053;DHT22;38934;52.690;6.184;2023-11-21T08:12:18;9.10;99.90
53053;DHT22;38934;52.690;6.184;2023-11-21T08:14:46;9.30;99.90
53053;DHT22;38934;52.690;6.184;2023-11-21T08:17:11;9.70;99.90
53053;DHT22;38934;52.690;6.184;2023-11-21T08:19:37;9.40;99.90
53053;DHT22;38934;52.690;6.184;2023-11-21T08:22:03;9.40;99.90
53053;DHT22;38934;52.690;6.184;2023-11-21T08:24:29;9.30;99.90
53053;DHT22;38934;52.690;6.184;2023-11-21T08:26:54;9.40;99.90
53053;DHT22;38934;52.690;6.184;2023-11-21T08:29:20;9.40;99.90
53053;DHT22;38934;52.690;6.184;2023-11-21T08:31:46;9.40;99.90
53053;DHT22;38934;52.690;6.184;2023-11-21T08:34:12;9.30;99.90
53053;DHT22;38934;52.690;6.184;2023-11-21T08:36:43;9.50;99.90
53053;DHT22;38934;52.690;6.184;2023-11-21T08:39:08;9.40;99.90
53053;DHT22;38934;52.690;6.184;2023-11-21T08:41:35;9.40;99.90
53053;DHT22;38934;52.690;6.184;2023-11-21T08:44:02;9.30;99.90
53053;DHT22;38934;52.690;6.184;2023-11-21T08:46:32;9.40;99.90
53053;DHT22;38934;52.690;6.184;2023-11-21T08:49:00;9.60;99.90
53053;DHT22;38934;52.690;6.184;2023-11-21T08:51:26;9.30;99.90
53053;DHT22;38934;52.690;6.184;2023-11-21T08:53:52;9.30;99.90
53053;DHT22;38934;52.690;6.184;2023-11-21T08:56:18;9.40;99.90
53053;DHT22;38934;52.690;6.184;2023-11-21T08:58:45;9.20;99.90
53053;DHT22;38934;52.690;6.184;2023-11-21T09:01:12;9.20;99.90
53053;DHT22;38934;52.690;6.184;2023-11-21T09:03:38;9.20;99.90
53053;DHT22;38934;52.690;6.184;2023-11-21T09:06:04;9.20;99.90
53053;DHT22;38934;52.690;6.184;2023-11-21T09:08:30;9.20;99.90
53053;DHT22;38934;52.690;6.184;2023-11-21T09:10:57;9.30;99.90
53053;DHT22;38934;52.690;6.184;2023-11-21T09:13:22;9.30;99.90
53053;DHT22;38934;52.690;6.184;2023-11-21T09:15:50;9.20;99.90
53053;DHT22;38934;52.690;6.184;2023-11-21T09:18:16;9.20;99.90
53053;DHT22;38934;52.690;6.184;2023-11-21T09:20:42;9.40;99.90
53053;DHT22;38934;52.690;6.184;2023-11-21T09:23:09;9.30;99.90
53053;DHT22;38934;52.690;6.184;2023-11-21T09:25:35;9.40;99.90
53053;DHT22;38934;52.690;6.184;2023-11-21T09:28:05;9.30;99.90
53053;DHT22;38934;52.690;6.184;2023-11-21T09:30:35;9.30;99.90
53053;DHT22;38934;52.690;6.184;2023-11-21T09:33:02;9.30;99.90
53053;DHT22;38934;52.690;6.184;2023-11-21T09:35:27;9.30;99.90
53053;DHT22;38934;52.690;6.184;2023-11-21T09:37:53;9.40;99.90
53053;DHT22;38934;52.690;6.184;2023-11-21T09:40:21;9.20;99.90
53053;DHT22;38934;52.690;6.184;2023-11-21T09:42:57;9.30;99.90
53053;DHT22;38934;52.690;6.184;2023-11-21T09:45:31;9.30;99.90
53053;DHT22;38934;52.690;6.184;2023-11-21T09:47:59;9.20;99.90
53053;DHT22;38934;52.690;6.184;2023-11-21T09:50:26;9.20;99.90
53053;DHT22;38934;52.690;6.184;2023-11-21T09:53:17;9.30;99.90
53053;DHT22;38934;52.690;6.184;2023-11-21T09:55:46;9.30;99.90
53053;DHT22;38934;52.690;6.184;2023-11-21T09:58:13;9.30;99.90
53053;DHT22;38934;52.690;6.184;2023-11-21T10:00:44;9.30;99.90
53053;DHT22;38934;52.690;6.184;2023-11-21T10:03:10;9.20;99.90
53053;DHT22;38934;52.690;6.184;2023-11-21T10:05:37;9.30;99.90
53053;DHT22;38934;52.690;6.184;2023-11-21T10:08:10;9.10;99.90
53053;DHT22;38934;52.690;6.184;2023-11-21T10:10:36;9.20;99.90
53053;DHT22;38934;52.690;6.184;2023-11-21T10:13:07;9.20;99.90
53053;DHT22;38934;52.690;6.184;2023-11-21T10:15:36;9.10;99.90
53053;DHT22;38934;52.690;6.184;2023-11-21T10:18:03;10.10;99.90
53053;DHT22;38934;52.690;6.184;2023-11-21T10:20:29;9.20;99.90
53053;DHT22;38934;52.690;6.184;2023-11-21T10:22:55;10.00;99.90
53053;DHT22;38934;52.690;6.184;2023-11-21T10:25:22;9.00;99.90
53053;DHT22;38934;52.690;6.184;2023-11-21T10:27:49;9.00;99.90
53053;DHT22;38934;52.690;6.184;2023-11-21T10:30:17;9.20;99.90
53053;DHT22;38934;52.690;6.184;2023-11-21T10:32:43;9.00;99.90
53053;DHT22;38934;52.690;6.184;2023-11-21T10:35:10;9.30;99.90
53053;DHT22;38934;52.690;6.184;2023-11-21T10:37:37;8.90;99.90
53053;DHT22;38934;52.690;6.184;2023-11-21T10:40:10;8.90;99.90
53053;DHT22;38934;52.690;6.184;2023-11-21T10:42:40;8.90;99.90
53053;DHT22;38934;52.690;6.184;2023-11-21T10:45:07;8.80;99.90
53053;DHT22;38934;52.690;6.184;2023-11-21T10:47:40;8.80;99.90
53053;DHT22;38934;52.690;6.184;2023-11-21T10:50:07;8.90;99.90
53053;DHT22;38934;52.690;6.184;2023-11-21T10:52:39;9.10;99.90
53053;DHT22;38934;52.690;6.184;2023-11-21T10:55:20;9.10;99.90
53053;DHT22;38934;52.690;6.184;2023-11-21T10:57:53;9.20;99.90
53053;DHT22;38934;52.690;6.184;2023-11-21T11:00:19;9.10;99.90
53053;DHT22;38934;52.690;6.184;2023-11-21T11:02:53;9.20;99.90
53053;DHT22;38934;52.690;6.184;2023-11-21T11:05:21;9.20;99.90
53053;DHT22;38934;52.690;6.184;2023-11-21T11:07:51;9.20;99.90
53053;DHT22;38934;52.690;6.184;2023-11-21T11:10:20;9.10;99.90
53053;DHT22;38934;52.690;6.184;2023-11-21T11:12:48;9.20;99.90
53053;DHT22;38934;52.690;6.184;2023-11-21T11:15:16;9.00;99.90
53053;DHT22;38934;52.690;6.184;2023-11-21T11:17:42;9.00;99.90
53053;DHT22;38934;52.690;6.184;2023-11-21T11:20:13;9.20;99.90
53053;DHT22;38934;52.690;6.184;2023-11-21T11:23:04;8.90;99.90
53053;DHT22;38934;52.690;6.184;2023-11-21T11:33:53;8.90;99.90
53053;DHT22;38934;52.690;6.184;2023-11-21T11:36:35;8.90;99.90
53053;DHT22;38934;52.690;6.184;2023-11-21T11:39:03;8.90;99.90
53053;DHT22;38934;52.690;6.184;2023-11-21T11:41:34;9.00;99.90
53053;DHT22;38934;52.690;6.184;2023-11-21T11:44:00;8.90;99.90
53053;DHT22;38934;52.690;6.184;2023-11-21T11:46:47;8.90;99.90
53053;DHT22;38934;52.690;6.184;2023-11-21T11:49:27;8.90;99.90
53053;DHT22;38934;52.690;6.184;2023-11-21T11:52:46;8.90;99.90
53053;DHT22;38934;52.690;6.184;2023-11-21T11:55:15;8.80;99.90
53053;DHT22;38934;52.690;6.184;2023-11-21T11:57:49;8.70;99.90
53053;DHT22;38934;52.690;6.184;2023-11-21T12:00:22;8.80;99.90
53053;DHT22;38934;52.690;6.184;2023-11-21T12:03:01;8.80;99.90
53053;DHT22;38934;52.690;6.184;2023-11-21T12:05:34;9.20;99.90
53053;DHT22;38934;52.690;6.184;2023-11-21T12:08:11;8.70;99.90
53053;DHT22;38934;52.690;6.184;2023-11-21T12:10:38;9.10;99.90
53053;DHT22;38934;52.690;6.184;2023-11-21T12:13:09;9.00;99.90
53053;DHT22;38934;52.690;6.184;2023-11-21T12:15:39;8.60;99.90
53053;DHT22;38934;52.690;6.184;2023-11-21T12:18:07;8.60;99.90
53053;DHT22;38934;52.690;6.184;2023-11-21T12:20:32;8.60;99.90
53053;DHT22;38934;52.690;6.184;2023-11-21T12:23:04;9.10;99.90
53053;DHT22;38934;52.690;6.184;2023-11-21T12:25:31;8.60;99.90
53053;DHT22;38934;52.690;6.184;2023-11-21T12:27:59;8.60;99.90
53053;DHT22;38934;52.690;6.184;2023-11-21T12:30:27;8.70;99.90
53053;DHT22;38934;52.690;6.184;2023-11-21T12:33:02;8.60;99.90
53053;DHT22;38934;52.690;6.184;2023-11-21T12:35:29;8.60;99.90
53053;DHT22;38934;52.690;6.184;2023-11-21T12:37:56;8.90;99.90
53053;DHT22;38934;52.690;6.184;2023-11-21T12:40:25;8.60;99.90
53053;DHT22;38934;52.690;6.184;2023-11-21T12:42:56;8.60;99.90
53053;DHT22;38934;52.690;6.184;2023-11-21T12:45:23;8.60;99.90
53053;DHT22;38934;52.690;6.184;2023-11-21T12:47:56;8.70;99.90
53053;DHT22;38934;52.690;6.184;2023-11-21T12:50:26;8.60;99.90
53053;DHT22;38934;52.690;6.184;2023-11-21T12:53:01;8.90;99.90
53053;DHT22;38934;52.690;6.184;2023-11-21T12:55:33;8.60;99.90
53053;DHT22;38934;52.690;6.184;2023-11-21T12:58:04;8.50;99.90
53053;DHT22;38934;52.690;6.184;2023-11-21T13:00:48;8.60;99.90
53053;DHT22;38934;52.690;6.184;2023-11-21T13:03:15;8.90;99.90
53053;DHT22;38934;52.690;6.184;2023-11-21T13:05:44;8.40;99.90
53053;DHT22;38934;52.690;6.184;2023-11-21T13:08:12;8.40;99.90
53053;DHT22;38934;52.690;6.184;2023-11-21T13:10:43;8.30;99.90
53053;DHT22;38934;52.690;6.184;2023-11-21T13:13:12;8.30;99.90
53053;DHT22;38934;52.690;6.184;2023-11-21T13:15:51;8.40;99.90
53053;DHT22;38934;52.690;6.184;2023-11-21T13:18:17;8.40;99.90
53053;DHT22;38934;52.690;6.184;2023-11-21T13:20:43;8.40;99.90
53053;DHT22;38934;52.690;6.184;2023-11-21T13:23:10;8.40;99.90
53053;DHT22;38934;52.690;6.184;2023-11-21T13:25:41;8.80;99.90
53053;DHT22;38934;52.690;6.184;2023-11-21T13:28:08;8.40;99.90
53053;DHT22;38934;52.690;6.184;2023-11-21T13:30:35;8.40;99.90
53053;DHT22;38934;52.690;6.184;2023-11-21T13:33:04;8.50;99.90
53053;DHT22;38934;52.690;6.184;2023-11-21T13:35:35;8.50;99.90
53053;DHT22;38934;52.690;6.184;2023-11-21T13:38:21;8.50;99.90
53053;DHT22;38934;52.690;6.184;2023-11-21T13:40:53;8.60;99.90
53053;DHT22;38934;52.690;6.184;2023-11-21T13:43:22;8.60;99.90
53053;DHT22;38934;52.690;6.184;2023-11-21T13:45:49;8.60;99.90
53053;DHT22;38934;52.690;6.184;2023-11-21T13:48:21;8.60;99.90
53053;DHT22;38934;52.690;6.184;2023-11-21T13:50:53;8.60;99.90
53053;DHT22;38934;52.690;6.184;2023-11-21T13:53:27;8.60;99.90
53053;DHT22;38934;52.690;6.184;2023-11-21T13:55:56;8.60;99.90
53053;DHT22;38934;52.690;6.184;2023-11-21T13:58:23;8.50;99.90
53053;DHT22;38934;52.690;6.184;2023-11-21T14:00:58;8.50;99.90
53053;DHT22;38934;52.690;6.184;2023-11-21T14:03:24;8.40;99.90
53053;DHT22;38934;52.690;6.184;2023-11-21T14:05:58;8.30;99.90
53053;DHT22;38934;52.690;6.184;2023-11-21T14:08:26;8.30;99.90
53053;DHT22;38934;52.690;6.184;2023-11-21T14:10:57;8.20;99.90
53053;DHT22;38934;52.690;6.184;2023-11-21T14:13:25;8.10;99.90
53053;DHT22;38934;52.690;6.184;2023-11-21T14:15:51;8.10;99.90
53053;DHT22;38934;52.690;6.184;2023-11-21T14:18:24;8.10;99.90
53053;DHT22;38934;52.690;6.184;2023-11-21T14:20:57;8.00;99.90
53053;DHT22;38934;52.690;6.184;2023-11-21T14:23:23;8.00;99.90
53053;DHT22;38934;52.690;6.184;2023-11-21T14:25:49;8.00;99.90
53053;DHT22;38934;52.690;6.184;2023-11-21T14:28:16;8.10;99.90
53053;DHT22;38934;52.690;6.184;2023-11-21T14:30:42;8.10;99.90
53053;DHT22;38934;52.690;6.184;2023-11-21T14:33:08;8.00;99.90
53053;DHT22;38934;52.690;6.184;2023-11-21T14:35:35;8.00;99.90
53053;DHT22;38934;52.690;6.184;2023-11-21T14:38:02;8.00;99.90
53053;DHT22;38934;52.690;6.184;2023-11-21T14:40:33;8.00;99.90
53053;DHT22;38934;52.690;6.184;2023-11-21T14:43:04;7.90;99.90
53053;DHT22;38934;52.690;6.184;2023-11-21T14:45:32;7.90;99.90
53053;DHT22;38934;52.690;6.184;2023-11-21T14:47:58;7.80;99.90
53053;DHT22;38934;52.690;6.184;2023-11-21T14:50:29;7.80;99.90
53053;DHT22;38934;52.690;6.184;2023-11-21T14:53:09;7.70;99.90
53053;DHT22;38934;52.690;6.184;2023-11-21T14:55:37;7.70;99.90
53053;DHT22;38934;52.690;6.184;2023-11-21T14:58:03;7.60;99.90
53053;DHT22;38934;52.690;6.184;2023-11-21T15:00:29;7.60;99.90
53053;DHT22;38934;52.690;6.184;2023-11-21T15:03:04;7.60;99.90
53053;DHT22;38934;52.690;6.184;2023-11-21T15:05:30;7.60;99.90
53053;DHT22;38934;52.690;6.184;2023-11-21T15:07:56;7.50;99.90
53053;DHT22;38934;52.690;6.184;2023-11-21T15:10:34;7.60;99.90
53053;DHT22;38934;52.690;6.184;2023-11-21T15:13:14;7.60;99.90
53053;DHT22;38934;52.690;6.184;2023-11-21T15:15:41;7.60;99.90
53053;DHT22;38934;52.690;6.184;2023-11-21T15:18:07;7.60;99.90
53053;DHT22;38934;52.690;6.184;2023-11-21T15:20:33;7.70;99.90
53053;DHT22;38934;52.690;6.184;2023-11-21T15:22:59;7.70;99.90
53053;DHT22;38934;52.690;6.184;2023-11-21T15:25:25;7.60;99.90
53053;DHT22;38934;52.690;6.184;2023-11-21T15:27:51;7.70;99.90
53053;DHT22;38934;52.690;6.184;2023-11-21T15:30:16;7.60;99.90
53053;DHT22;38934;52.690;6.184;2023-11-21T15:32:50;7.60;99.90
53053;DHT22;38934;52.690;6.184;2023-11-21T15:35:16;7.60;99.90
53053;DHT22;38934;52.690;6.184;2023-11-21T15:37:42;7.60;99.90
53053;DHT22;38934;52.690;6.184;2023-11-21T15:40:09;7.60;99.90
53053;DHT22;38934;52.690;6.184;2023-11-21T15:42:35;7.60;99.90
53053;DHT22;38934;52.690;6.184;2023-11-21T15:45:04;7.70;99.90
53053;DHT22;38934;52.690;6.184;2023-11-21T15:47:32;7.60;99.90
53053;DHT22;38934;52.690;6.184;2023-11-21T15:49:58;7.70;99.90
53053;DHT22;38934;52.690;6.184;2023-11-21T15:52:24;7.60;99.90
53053;DHT22;38934;52.690;6.184;2023-11-21T15:54:49;7.60;99.90
53053;DHT22;38934;52.690;6.184;2023-11-21T15:57:15;7.60;99.90